createdAt,value
2023-04-10T00:00:48.193Z,13.23
2023-04-10T00:03:18.231Z,11.63
2023-04-10T00:05:46.640Z,11.63
2023-04-10T00:08:14.773Z,11.70
2023-04-10T00:10:43.299Z,12.43
2023-04-10T00:13:11.355Z,11.27
2023-04-10T00:15:39.398Z,10.87
2023-04-10T00:18:07.430Z,10.77
2023-04-10T00:20:36.877Z,11.43
2023-04-10T00:23:04.903Z,11.43
2023-04-10T00:25:33.329Z,11.10
2023-04-10T00:28:01.384Z,10.13
2023-04-10T00:30:29.553Z,9.87
2023-04-10T00:32:57.658Z,11.37
2023-04-10T00:35:25.782Z,10.40
2023-04-10T00:37:57.007Z,10.10
2023-04-10T00:40:25.638Z,10.17
2023-04-10T00:42:53.714Z,10.10
2023-04-10T00:45:22.267Z,10.60
2023-04-10T00:47:50.417Z,10.47
2023-04-10T00:50:18.526Z,9.53
2023-04-10T00:52:46.988Z,9.80
2023-04-10T00:55:16.609Z,10.40
2023-04-10T00:57:45.370Z,9.00
2023-04-10T01:00:14.817Z,10.17
2023-04-10T01:02:43.099Z,10.17
2023-04-10T01:05:12.280Z,9.83
2023-04-10T01:07:50.777Z,10.83
2023-04-10T01:10:25.356Z,11.20
2023-04-10T01:12:57.532Z,10.33
2023-04-10T01:15:27.166Z,10.50
2023-04-10T01:17:58.612Z,9.63
2023-04-10T01:20:28.471Z,9.60
2023-04-10T01:23:25.490Z,10.27
2023-04-10T01:25:57.716Z,9.87
2023-04-10T01:28:42.259Z,9.93
2023-04-10T01:31:12.362Z,9.53
2023-04-10T01:33:42.054Z,10.33
2023-04-10T01:36:10.863Z,10.23
2023-04-10T01:38:40.041Z,10.03
2023-04-10T01:41:08.179Z,10.47
2023-04-10T01:43:36.161Z,10.30
2023-04-10T01:46:06.759Z,10.60
2023-04-10T01:48:34.807Z,10.33
2023-04-10T01:51:05.235Z,10.10
2023-04-10T01:53:33.828Z,10.83
2023-04-10T01:56:02.936Z,10.73
2023-04-10T01:58:34.756Z,10.17
2023-04-10T02:01:03.237Z,10.47
2023-04-10T02:03:32.945Z,9.87
2023-04-10T02:06:06.802Z,11.10
2023-04-10T02:08:36.282Z,10.97
2023-04-10T02:11:11.935Z,11.13
2023-04-10T02:13:40.531Z,11.80
2023-04-10T02:16:09.077Z,12.50
2023-04-10T02:18:38.655Z,11.63
2023-04-10T02:21:07.504Z,11.13
2023-04-10T02:23:35.550Z,11.80
2023-04-10T02:26:07.958Z,10.83
2023-04-10T02:28:36.777Z,11.17
2023-04-10T02:31:08.220Z,11.83
2023-04-10T02:33:38.026Z,11.67
2023-04-10T02:36:06.841Z,11.27
2023-04-10T02:38:34.896Z,11.63
2023-04-10T02:41:03.496Z,11.47
2023-04-10T02:43:31.620Z,10.70
2023-04-10T02:46:00.128Z,11.43
2023-04-10T02:48:31.881Z,11.20
2023-04-10T02:51:04.806Z,11.13
2023-04-10T02:53:33.404Z,11.50
2023-04-10T02:56:03.677Z,11.07
2023-04-10T02:58:31.804Z,10.80
2023-04-10T03:01:01.716Z,11.20
2023-04-10T03:03:46.614Z,11.10
2023-04-10T03:06:26.220Z,10.93
2023-04-10T03:08:56.206Z,11.80
2023-04-10T03:11:24.278Z,12.27
2023-04-10T03:13:52.592Z,11.87
2023-04-10T03:16:20.841Z,11.70
2023-04-10T03:18:49.283Z,11.90
2023-04-10T03:21:17.800Z,11.20
2023-04-10T03:23:47.617Z,11.60
2023-04-10T03:26:15.745Z,11.33
2023-04-10T03:28:43.855Z,12.00
2023-04-10T03:31:12.916Z,11.60
2023-04-10T03:33:43.820Z,11.47
2023-04-10T03:36:12.564Z,12.43
2023-04-10T03:38:40.697Z,12.03
2023-04-10T03:41:11.689Z,11.73
2023-04-10T03:43:40.362Z,12.23
2023-04-10T03:46:09.256Z,12.37
2023-04-10T03:48:42.666Z,12.73
2023-04-10T03:51:11.619Z,13.30
2023-04-10T03:53:39.670Z,12.60
2023-04-10T03:56:13.847Z,13.13
2023-04-10T03:58:42.466Z,12.90
2023-04-10T04:01:11.523Z,13.90
2023-04-10T04:03:56.728Z,13.37
2023-04-10T04:06:43.535Z,12.63
2023-04-10T04:09:28.590Z,13.07
2023-04-10T04:12:17.516Z,13.70
2023-04-10T04:14:51.465Z,13.00
2023-04-10T04:17:25.806Z,13.63
2023-04-10T04:20:16.908Z,13.90
2023-04-10T04:23:10.927Z,12.70
2023-04-10T04:25:39.029Z,13.43
2023-04-10T04:28:24.027Z,13.00
2023-04-10T04:31:12.041Z,13.20
2023-04-10T04:34:06.619Z,13.00
2023-04-10T04:36:58.021Z,13.20
2023-04-10T04:39:53.145Z,14.07
2023-04-10T04:42:42.747Z,14.83
2023-04-10T04:45:21.834Z,14.23
2023-04-10T04:48:28.278Z,15.50
2023-04-10T04:51:14.085Z,15.20
2023-04-10T04:53:57.445Z,15.87
2023-04-10T04:56:44.163Z,15.90
2023-04-10T04:59:30.962Z,16.87
2023-04-10T05:02:25.832Z,15.97
2023-04-10T05:05:05.567Z,16.27
2023-04-10T05:07:47.360Z,15.33
2023-04-10T05:10:35.791Z,16.77
2023-04-10T05:13:13.899Z,16.17
2023-04-10T05:16:14.771Z,16.07
2023-04-10T05:18:58.280Z,15.20
2023-04-10T05:21:52.560Z,15.57
2023-04-10T05:24:28.680Z,16.43
2023-04-10T05:27:15.063Z,16.57
2023-04-10T05:30:06.542Z,17.67
2023-04-10T05:32:37.517Z,16.73
2023-04-10T05:35:45.473Z,17.00
2023-04-10T05:38:33.734Z,19.10
2023-04-10T05:41:22.046Z,19.10
2023-04-10T05:44:05.383Z,19.33
2023-04-10T05:46:47.741Z,18.10
2023-04-10T05:49:18.822Z,19.20
2023-04-10T05:52:03.978Z,20.63
2023-04-10T05:54:40.754Z,23.87
2023-04-10T05:57:27.779Z,24.67
2023-04-10T06:00:23.742Z,24.93
2023-04-10T06:03:17.811Z,25.47
2023-04-10T06:05:52.439Z,27.20
2023-04-10T06:08:22.872Z,25.57
2023-04-10T06:10:51.194Z,22.93
2023-04-10T06:13:19.494Z,22.60
2023-04-10T06:15:47.601Z,24.07
2023-04-10T06:18:16.839Z,21.73
2023-04-10T06:20:45.153Z,20.97
2023-04-10T06:23:14.466Z,21.10
2023-04-10T06:25:44.271Z,21.50
2023-04-10T06:28:12.370Z,22.17
2023-04-10T06:30:41.477Z,20.80
2023-04-10T06:33:09.575Z,20.40
2023-04-10T06:35:41.628Z,20.37
2023-04-10T06:38:09.829Z,18.30
2023-04-10T06:40:39.099Z,18.23
2023-04-10T06:43:08.557Z,16.47
2023-04-10T06:45:39.474Z,16.30
2023-04-10T06:48:08.240Z,17.30
2023-04-10T06:50:36.507Z,13.43
2023-04-10T06:53:04.715Z,14.93
2023-04-10T06:55:32.752Z,15.87
2023-04-10T06:58:00.836Z,14.57
2023-04-10T07:00:30.682Z,14.03
2023-04-10T07:02:58.933Z,14.77
2023-04-10T07:05:27.300Z,14.57
2023-04-10T07:07:55.684Z,14.27
2023-04-10T07:10:23.876Z,13.03
2023-04-10T07:12:52.096Z,12.67
2023-04-10T07:15:20.795Z,13.03
2023-04-10T07:17:51.498Z,13.03
2023-04-10T07:20:22.584Z,12.57
2023-04-10T07:22:50.718Z,12.53
2023-04-10T07:25:18.903Z,13.10
2023-04-10T07:27:47.363Z,12.43
2023-04-10T07:30:15.565Z,12.73
2023-04-10T07:32:43.858Z,11.57
2023-04-10T07:35:13.381Z,12.80
2023-04-10T07:37:41.981Z,12.33
2023-04-10T07:40:11.539Z,12.33
2023-04-10T07:42:39.971Z,12.23
2023-04-10T07:45:09.413Z,11.73
2023-04-10T07:47:37.654Z,11.93
2023-04-10T07:50:06.920Z,11.90
2023-04-10T07:52:36.415Z,12.30
2023-04-10T07:55:04.572Z,11.90
2023-04-10T07:57:33.306Z,11.90
2023-04-10T08:00:01.298Z,10.57
2023-04-10T08:02:29.534Z,11.60
2023-04-10T08:04:57.717Z,11.17
2023-04-10T08:07:26.030Z,10.73
2023-04-10T08:09:55.872Z,10.63
2023-04-10T08:12:23.944Z,11.03
2023-04-10T08:14:52.658Z,10.83
2023-04-10T08:17:20.860Z,10.50
2023-04-10T08:19:48.970Z,11.17
2023-04-10T08:22:17.044Z,10.30
2023-04-10T08:24:45.605Z,10.20
2023-04-10T08:27:16.264Z,9.57
2023-04-10T08:29:44.319Z,9.33
2023-04-10T08:32:12.390Z,9.50
2023-04-10T08:34:40.500Z,8.97
2023-04-10T08:37:11.838Z,9.67
2023-04-10T08:39:40.012Z,9.70
2023-04-10T08:42:08.407Z,9.73
2023-04-10T08:44:39.210Z,8.80
2023-04-10T08:47:07.450Z,8.90
2023-04-10T08:49:44.852Z,9.50
2023-04-10T08:52:15.716Z,9.47
2023-04-10T08:54:44.986Z,9.23
2023-04-10T08:57:13.810Z,9.23
2023-04-10T08:59:43.278Z,10.10
2023-04-10T09:02:11.484Z,9.90
2023-04-10T09:04:40.134Z,10.03
2023-04-10T09:07:08.363Z,8.93
2023-04-10T09:09:36.407Z,9.43
2023-04-10T09:12:06.887Z,9.43
2023-04-10T09:14:35.922Z,8.53
2023-04-10T09:17:16.288Z,9.37
2023-04-10T09:19:45.317Z,9.47
2023-04-10T09:22:13.525Z,8.93
2023-04-10T09:24:42.484Z,9.67
2023-04-10T09:27:10.681Z,9.90
2023-04-10T09:29:43.709Z,9.50
2023-04-10T09:32:11.979Z,8.77
2023-04-10T09:34:58.763Z,8.70
2023-04-10T09:37:32.877Z,8.63
2023-04-10T09:40:01.023Z,8.83
2023-04-10T09:42:32.864Z,9.13
2023-04-10T09:45:01.272Z,9.27
2023-04-10T09:47:30.084Z,8.60
2023-04-10T09:50:00.782Z,8.43
2023-04-10T09:52:29.907Z,9.03
2023-04-10T09:54:58.998Z,9.20
2023-04-10T09:57:29.201Z,8.67
2023-04-10T09:59:58.588Z,8.50
2023-04-10T10:02:27.358Z,7.50
2023-04-10T10:04:55.740Z,7.23
2023-04-10T10:07:25.205Z,7.30
2023-04-10T10:09:53.687Z,7.57
2023-04-10T10:12:24.360Z,6.77
2023-04-10T10:14:55.451Z,8.47
2023-04-10T10:17:23.552Z,6.90
2023-04-10T10:19:54.855Z,6.63
2023-04-10T10:22:22.926Z,6.80
2023-04-10T10:24:56.651Z,6.13
2023-04-10T10:27:24.842Z,6.77
2023-04-10T10:29:54.801Z,6.93
2023-04-10T10:32:22.904Z,6.43
2023-04-10T10:34:53.053Z,6.17
2023-04-10T10:37:21.842Z,5.73
2023-04-10T10:39:57.980Z,5.70
2023-04-10T10:42:29.676Z,6.23
2023-04-10T10:45:01.454Z,5.80
2023-04-10T10:47:30.192Z,5.70
2023-04-10T10:49:59.075Z,5.93
2023-04-10T10:52:46.577Z,5.47
2023-04-10T10:55:37.716Z,5.73
2023-04-10T10:58:07.150Z,5.37
2023-04-10T11:01:09.830Z,5.60
2023-04-10T11:03:39.250Z,5.37
2023-04-10T11:06:08.740Z,4.93
2023-04-10T11:08:47.262Z,5.30
2023-04-10T11:11:21.727Z,5.70
2023-04-10T11:14:21.445Z,5.17
2023-04-10T11:16:49.651Z,5.60
2023-04-10T11:19:22.747Z,5.13
2023-04-10T11:22:08.260Z,5.87
2023-04-10T11:25:02.668Z,5.20
2023-04-10T11:27:49.759Z,5.67
2023-04-10T11:30:28.276Z,4.87
2023-04-10T11:32:56.569Z,5.10
2023-04-10T11:35:24.925Z,4.93
2023-04-10T11:37:53.462Z,5.27
2023-04-10T11:40:21.529Z,5.30
2023-04-10T11:42:51.002Z,4.97
2023-04-10T11:45:29.094Z,5.10
2023-04-10T11:47:57.827Z,5.00
2023-04-10T11:50:25.936Z,4.40
2023-04-10T11:52:55.329Z,4.97
2023-04-10T11:55:38.345Z,4.77
2023-04-10T11:58:22.425Z,4.80
2023-04-10T12:01:00.242Z,4.70
2023-04-10T12:03:36.266Z,4.83
2023-04-10T12:06:07.154Z,4.60
2023-04-10T12:08:35.472Z,4.53
2023-04-10T12:11:03.726Z,4.47
2023-04-10T12:13:33.400Z,4.37
2023-04-10T12:16:02.295Z,4.70
2023-04-10T12:18:30.884Z,4.50
2023-04-10T12:20:59.534Z,4.83
2023-04-10T12:23:28.166Z,5.10
2023-04-10T12:26:12.583Z,4.50
2023-04-10T12:28:42.480Z,4.53
2023-04-10T12:31:10.581Z,4.20
2023-04-10T12:33:39.114Z,4.27
2023-04-10T12:36:07.863Z,4.50
2023-04-10T12:38:37.402Z,4.00
2023-04-10T12:41:06.284Z,4.10
2023-04-10T12:43:35.428Z,4.20
2023-04-10T12:46:05.445Z,4.10
2023-04-10T12:48:34.005Z,3.93
2023-04-10T12:51:02.190Z,4.40
2023-04-10T12:53:30.451Z,3.83
2023-04-10T12:56:00.173Z,3.83
2023-04-10T12:58:29.133Z,4.30
2023-04-10T13:00:58.210Z,3.60
2023-04-10T13:03:27.757Z,3.97
2023-04-10T13:05:55.867Z,4.53
2023-04-10T13:08:23.905Z,4.37
2023-04-10T13:10:53.128Z,4.20
2023-04-10T13:13:21.427Z,4.10
2023-04-10T13:15:49.951Z,4.00
2023-04-10T13:18:18.023Z,3.90
2023-04-10T13:20:47.436Z,3.87
2023-04-10T13:23:15.524Z,4.17
2023-04-10T13:25:43.613Z,4.57
2023-04-10T13:28:12.249Z,4.23
2023-04-10T13:30:41.625Z,4.53
2023-04-10T13:33:09.930Z,4.37
2023-04-10T13:35:38.132Z,3.97
2023-04-10T13:38:09.362Z,4.20
2023-04-10T13:40:37.633Z,4.53
2023-04-10T13:43:06.480Z,4.90
2023-04-10T13:45:34.940Z,4.43
2023-04-10T13:48:03.989Z,4.53
2023-04-10T13:50:32.351Z,5.10
2023-04-10T13:53:00.402Z,4.93
2023-04-10T13:55:30.292Z,4.00
2023-04-10T13:57:58.364Z,4.67
2023-04-10T14:00:26.646Z,4.33
2023-04-10T14:02:54.794Z,4.70
2023-04-10T14:05:22.987Z,4.63
2023-04-10T14:07:51.967Z,4.70
2023-04-10T14:10:20.962Z,4.70
2023-04-10T14:12:50.546Z,4.53
2023-04-10T14:15:18.837Z,4.40
2023-04-10T14:17:46.968Z,4.17
2023-04-10T14:20:15.573Z,4.63
2023-04-10T14:22:43.650Z,4.60
2023-04-10T14:25:15.908Z,4.43
2023-04-10T14:27:44.589Z,4.87
2023-04-10T14:30:14.904Z,4.63
2023-04-10T14:32:43.962Z,3.77
2023-04-10T14:35:12.099Z,4.67
2023-04-10T14:37:40.303Z,4.50
2023-04-10T14:40:09.767Z,4.13
2023-04-10T14:42:37.863Z,4.63
2023-04-10T14:45:06.736Z,4.47
2023-04-10T14:47:37.109Z,4.33
2023-04-10T14:50:05.837Z,4.20
2023-04-10T14:52:33.977Z,4.20
2023-04-10T14:55:02.260Z,4.57
2023-04-10T14:57:30.966Z,5.00
2023-04-10T15:00:01.322Z,4.90
2023-04-10T15:02:30.503Z,4.70
2023-04-10T15:05:00.158Z,4.57
2023-04-10T15:07:28.870Z,4.57
2023-04-10T15:09:57.754Z,4.60
2023-04-10T15:12:25.951Z,4.93
2023-04-10T15:14:54.494Z,5.50
2023-04-10T15:17:23.122Z,4.33
2023-04-10T15:19:51.331Z,4.27
2023-04-10T15:22:20.746Z,4.77
2023-04-10T15:24:50.771Z,4.20
2023-04-10T15:27:20.400Z,5.07
2023-04-10T15:29:48.575Z,4.83
2023-04-10T15:32:16.677Z,4.90
2023-04-10T15:34:45.146Z,4.93
2023-04-10T15:37:13.200Z,5.13
2023-04-10T15:39:42.728Z,4.70
2023-04-10T15:42:11.172Z,4.70
2023-04-10T15:44:39.233Z,4.53
2023-04-10T15:47:07.296Z,5.27
2023-04-10T15:49:38.363Z,5.50
2023-04-10T15:52:07.043Z,5.20
2023-04-10T15:54:35.698Z,4.97
2023-04-10T15:57:05.251Z,4.63
2023-04-10T15:59:33.768Z,5.47
2023-04-10T16:02:03.587Z,5.10
2023-04-10T16:04:31.911Z,5.80
2023-04-10T16:07:01.140Z,5.47
2023-04-10T16:09:30.480Z,5.10
2023-04-10T16:11:58.637Z,5.37
2023-04-10T16:14:31.441Z,5.30
2023-04-10T16:16:59.965Z,5.67
2023-04-10T16:19:32.261Z,5.27
2023-04-10T16:22:00.716Z,5.20
2023-04-10T16:24:28.772Z,4.77
2023-04-10T16:26:56.907Z,5.93
2023-04-10T16:29:24.923Z,4.97
2023-04-10T16:31:54.424Z,5.27
2023-04-10T16:34:22.640Z,5.40
2023-04-10T16:36:51.131Z,5.77
2023-04-10T16:39:19.310Z,5.77
2023-04-10T16:41:47.348Z,5.47
2023-04-10T16:44:15.475Z,5.50
2023-04-10T16:46:43.562Z,5.53
2023-04-10T16:49:13.496Z,5.83
2023-04-10T16:51:41.672Z,5.83
2023-04-10T16:54:09.817Z,6.07
2023-04-10T16:56:37.866Z,5.53
2023-04-10T16:59:05.931Z,6.00
2023-04-10T17:01:40.054Z,5.70
2023-04-10T17:04:09.290Z,5.93
2023-04-10T17:06:38.800Z,6.07
2023-04-10T17:09:06.950Z,5.73
2023-04-10T17:11:35.029Z,6.20
2023-04-10T17:14:03.191Z,5.80
2023-04-10T17:16:31.261Z,5.67
2023-04-10T17:18:59.759Z,5.40
2023-04-10T17:21:28.327Z,5.90
2023-04-10T17:23:57.732Z,5.90
2023-04-10T17:26:25.867Z,5.77
2023-04-10T17:28:54.129Z,6.23
2023-04-10T17:31:22.501Z,6.40
2023-04-10T17:33:50.679Z,5.80
2023-04-10T17:36:18.723Z,5.57
2023-04-10T17:38:46.887Z,5.77
2023-04-10T17:41:17.096Z,6.27
2023-04-10T17:43:45.296Z,5.50
2023-04-10T17:46:16.620Z,5.97
2023-04-10T17:48:44.765Z,5.13
2023-04-10T17:51:12.846Z,5.77
2023-04-10T17:53:40.855Z,5.43
2023-04-10T17:56:09.299Z,6.17
2023-04-10T17:58:38.748Z,6.67
2023-04-10T18:01:07.687Z,5.63
2023-04-10T18:03:35.893Z,5.70
2023-04-10T18:06:04.093Z,6.43
2023-04-10T18:08:32.106Z,6.03
2023-04-10T18:11:00.136Z,6.10
2023-04-10T18:13:28.617Z,5.80
2023-04-10T18:15:58.082Z,5.77
2023-04-10T18:18:26.100Z,5.80
2023-04-10T18:20:54.174Z,5.73
2023-04-10T18:23:24.135Z,5.80
2023-04-10T18:25:54.212Z,5.43
2023-04-10T18:28:22.287Z,5.77
2023-04-10T18:30:50.500Z,6.07
2023-04-10T18:33:23.990Z,6.33
2023-04-10T18:35:52.652Z,5.90
2023-04-10T18:38:20.758Z,5.37
2023-04-10T18:40:49.290Z,5.70
2023-04-10T18:43:17.420Z,5.80
2023-04-10T18:45:45.713Z,5.73
2023-04-10T18:48:13.784Z,6.03
2023-04-10T18:50:43.279Z,6.17
2023-04-10T18:53:11.366Z,6.13
2023-04-10T18:55:39.816Z,7.10
2023-04-10T18:58:07.971Z,6.40
2023-04-10T19:00:36.208Z,7.10
2023-04-10T19:03:04.563Z,6.77
2023-04-10T19:05:33.685Z,6.10
2023-04-10T19:08:04.534Z,5.43
2023-04-10T19:10:33.395Z,5.37
2023-04-10T19:13:01.520Z,6.10
2023-04-10T19:15:29.876Z,5.63
2023-04-10T19:17:58.062Z,5.20
2023-04-10T19:20:49.373Z,5.50
2023-04-10T19:23:16.443Z,5.40
2023-04-10T19:25:44.867Z,5.60
2023-04-10T19:28:12.971Z,5.03
2023-04-10T19:30:41.042Z,5.17
2023-04-10T19:33:09.138Z,5.37
2023-04-10T19:35:37.241Z,5.00
2023-04-10T19:38:05.313Z,5.30
2023-04-10T19:40:34.733Z,5.10
2023-04-10T19:43:02.789Z,4.67
2023-04-10T19:45:32.440Z,5.13
2023-04-10T19:48:01.220Z,5.50
2023-04-10T19:50:30.583Z,5.10
2023-04-10T19:52:59.561Z,5.03
2023-04-10T19:55:27.883Z,4.77
2023-04-10T19:57:57.365Z,5.50
2023-04-10T20:00:25.424Z,5.17
2023-04-10T20:02:54.021Z,5.37
2023-04-10T20:05:22.367Z,5.33
2023-04-10T20:07:50.526Z,5.30
2023-04-10T20:10:18.646Z,5.37
2023-04-10T20:12:46.673Z,5.37
2023-04-10T20:15:16.407Z,4.90
2023-04-10T20:17:44.704Z,4.60
2023-04-10T20:20:13.604Z,4.87
2023-04-10T20:22:41.695Z,4.57
2023-04-10T20:25:10.496Z,4.73
2023-04-10T20:27:38.599Z,5.00
2023-04-10T20:30:08.378Z,4.93
2023-04-10T20:32:37.948Z,4.33
2023-04-10T20:35:06.836Z,5.07
2023-04-10T20:37:34.872Z,4.63
2023-04-10T20:40:02.999Z,4.67
2023-04-10T20:42:31.213Z,4.70
2023-04-10T20:44:59.607Z,4.57
2023-04-10T20:47:27.776Z,4.77
2023-04-10T20:49:57.206Z,4.60
2023-04-10T20:52:25.299Z,4.70
2023-04-10T20:54:53.348Z,4.57
2023-04-10T20:57:21.854Z,4.23
2023-04-10T20:59:49.924Z,5.13
2023-04-10T21:02:18.621Z,4.33
2023-04-10T21:04:46.800Z,4.40
2023-04-10T21:07:16.294Z,4.70
2023-04-10T21:09:45.713Z,4.70
2023-04-10T21:12:13.776Z,4.93
2023-04-10T21:14:41.820Z,4.83
2023-04-10T21:17:09.870Z,4.77
2023-04-10T21:19:37.888Z,4.60
2023-04-10T21:22:06.413Z,4.60
2023-04-10T21:24:35.839Z,4.90
2023-04-10T21:27:03.892Z,4.60
2023-04-10T21:29:31.941Z,4.90
2023-04-10T21:32:00.068Z,4.70
2023-04-10T21:34:28.175Z,4.73
2023-04-10T21:36:56.631Z,5.17
2023-04-10T21:39:24.687Z,4.70
2023-04-10T21:41:54.104Z,5.23
2023-04-10T21:44:22.211Z,5.27
2023-04-10T21:46:50.270Z,4.90
2023-04-10T21:49:18.307Z,4.80
2023-04-10T21:51:46.739Z,5.10
2023-04-10T21:54:14.825Z,4.27
2023-04-10T21:56:43.319Z,4.90
2023-04-10T21:59:12.771Z,4.73
2023-04-10T22:01:41.856Z,5.00
2023-04-10T22:04:10.598Z,4.40
2023-04-10T22:06:38.894Z,5.07
2023-04-10T22:09:06.930Z,4.90
2023-04-10T22:11:37.391Z,4.70
2023-04-10T22:14:15.984Z,4.40
2023-04-10T22:16:46.865Z,3.93
2023-04-10T22:19:15.488Z,4.07
2023-04-10T22:21:43.572Z,4.07
2023-04-10T22:24:11.726Z,4.60
2023-04-10T22:26:42.097Z,4.43
2023-04-10T22:29:10.157Z,4.30
2023-04-10T22:31:38.606Z,4.50
2023-04-10T22:34:08.844Z,4.80
2023-04-10T22:36:36.948Z,4.00
2023-04-10T22:39:05.127Z,4.50
2023-04-10T22:41:33.264Z,4.23
2023-04-10T22:44:01.347Z,4.53
2023-04-10T22:46:29.716Z,4.50
2023-04-10T22:48:57.817Z,5.07
2023-04-10T22:51:27.791Z,5.07
2023-04-10T22:53:55.857Z,5.00
2023-04-10T22:56:26.563Z,4.30
2023-04-10T22:58:55.064Z,4.70
2023-04-10T23:01:23.695Z,4.63
2023-04-10T23:03:53.742Z,4.67
2023-04-10T23:06:21.982Z,4.00
2023-04-10T23:08:52.024Z,4.70
2023-04-10T23:11:20.091Z,4.10
2023-04-10T23:13:48.823Z,4.17
2023-04-10T23:16:16.923Z,4.33
2023-04-10T23:18:45.117Z,4.40
2023-04-10T23:21:13.196Z,4.30
2023-04-10T23:23:41.303Z,4.40
2023-04-10T23:26:11.892Z,4.50
2023-04-10T23:28:40.339Z,4.23
2023-04-10T23:31:09.176Z,4.43
2023-04-10T23:33:37.317Z,3.93
2023-04-10T23:36:06.126Z,4.37
2023-04-10T23:38:34.154Z,4.40
2023-04-10T23:41:02.947Z,4.70
2023-04-10T23:43:32.845Z,4.83
2023-04-10T23:46:00.909Z,5.47
2023-04-10T23:48:28.990Z,4.87
2023-04-10T23:51:04.183Z,4.50
2023-04-10T23:53:32.258Z,4.73
2023-04-10T23:56:00.622Z,4.80
2023-04-10T23:58:28.653Z,4.60
